Time;durP1;ratioP1;P1;durP2;ratioP2;P2;SDS_P1;SDS_P2;PMS_P1;PMS_P2;Temp;Humidity;BMP_temperature;BMP_pressure;BME280_temperature;BME280_humidity;BME280_pressure;Samples;Min_cycle;Max_cycle;Signal;HPM_P1;HPM_P2
2023/01/29 00:00:21;;;;;;;16.50;7.63;;;3.10;99.90;;;;;;5083435;27;20198;-64
2023/01/29 00:02:48;;;;;;;13.73;7.13;;;3.20;99.90;;;;;;5082758;27;20199;-64
2023/01/29 00:05:17;;;;;;;10.17;6.17;;;3.10;99.90;;;;;;5079991;27;20199;-64
2023/01/29 00:07:44;;;;;;;12.47;6.50;;;3.10;99.90;;;;;;5064222;27;21430;-65
2023/01/29 00:10:12;;;;;;;12.87;6.43;;;3.10;99.90;;;;;;5089773;27;20204;-64
2023/01/29 00:12:39;;;;;;;12.97;6.87;;;3.10;99.90;;;;;;5096891;27;20191;-64
2023/01/29 00:15:07;;;;;;;10.23;6.17;;;3.10;99.90;;;;;;5101604;27;20199;-64
2023/01/29 00:17:33;;;;;;;11.73;6.47;;;3.20;99.90;;;;;;5088557;27;20227;-64
2023/01/29 00:20:00;;;;;;;11.17;5.83;;;3.10;99.90;;;;;;5077969;27;20204;-64
2023/01/29 00:22:30;;;;;;;16.17;6.50;;;3.10;99.90;;;;;;5090634;27;20215;-64
2023/01/29 00:24:57;;;;;;;9.90;6.17;;;3.10;99.90;;;;;;5061527;27;20207;-64
2023/01/29 00:27:24;;;;;;;12.40;6.07;;;3.10;99.90;;;;;;5085453;27;20245;-64
2023/01/29 00:30:08;;;;;;;13.17;6.30;;;3.20;99.90;;;;;;5092422;27;20208;-64
2023/01/29 00:32:35;;;;;;;12.00;6.07;;;3.10;99.90;;;;;;5085645;27;20523;-64
2023/01/29 00:35:02;;;;;;;10.10;5.67;;;3.10;99.90;;;;;;5097169;27;20928;-64
2023/01/29 00:37:30;;;;;;;11.13;5.63;;;3.20;99.90;;;;;;5064516;27;20800;-64
2023/01/29 00:39:57;;;;;;;9.60;5.87;;;3.20;99.90;;;;;;5059593;27;20207;-64
2023/01/29 00:45:09;;;;;;;10.20;6.10;;;3.20;99.90;;;;;;5090729;27;20276;-64
2023/01/29 00:47:36;;;;;;;9.90;6.33;;;3.10;99.90;;;;;;5085274;27;20769;-64
2023/01/29 00:50:05;;;;;;;11.87;6.30;;;3.10;99.90;;;;;;5091246;27;20954;-63
2023/01/29 00:52:35;;;;;;;10.33;5.50;;;3.10;99.90;;;;;;5077659;27;20208;-64
2023/01/29 00:55:02;;;;;;;9.90;6.17;;;3.10;99.90;;;;;;5055706;27;20203;-64
2023/01/29 00:57:30;;;;;;;9.73;5.63;;;3.10;99.90;;;;;;5088937;27;20219;-64
2023/01/29 00:59:57;;;;;;;9.13;5.47;;;3.20;99.90;;;;;;5076714;27;20207;-64
2023/01/29 01:05:12;;;;;;;11.00;5.77;;;3.20;99.90;;;;;;5089863;27;20760;-64
2023/01/29 01:07:41;;;;;;;13.37;6.67;;;3.10;99.90;;;;;;5075311;27;20375;-64
2023/01/29 01:10:20;;;;;;;12.57;6.33;;;3.10;99.90;;;;;;5075669;27;20204;-64
2023/01/29 01:12:47;;;;;;;8.27;5.43;;;3.10;99.90;;;;;;5087347;27;20199;-65
2023/01/29 01:15:14;;;;;;;9.03;5.97;;;3.10;99.90;;;;;;5074708;27;20210;-65
2023/01/29 01:17:41;;;;;;;10.90;5.97;;;3.10;99.90;;;;;;5105376;27;20230;-64
2023/01/29 01:20:09;;;;;;;14.23;7.20;;;3.10;99.90;;;;;;5070447;27;20286;-64
2023/01/29 01:22:36;;;;;;;13.17;6.47;;;3.10;99.90;;;;;;5085991;27;20206;-64
2023/01/29 01:25:05;;;;;;;11.20;6.47;;;3.10;99.90;;;;;;5096623;27;20195;-64
2023/01/29 01:27:33;;;;;;;10.87;6.07;;;3.10;99.90;;;;;;5069329;27;21204;-64
2023/01/29 01:30:00;;;;;;;15.20;7.00;;;3.10;99.90;;;;;;5097210;27;20203;-64
2023/01/29 01:32:27;;;;;;;15.37;6.70;;;3.10;99.90;;;;;;5086179;27;20300;-64
2023/01/29 01:34:53;;;;;;;12.50;6.40;;;3.80;99.90;;;;;;5081866;27;20206;-64
2023/01/29 01:37:20;;;;;;;13.10;7.27;;;3.10;99.90;;;;;;5066707;27;20522;-64
2023/01/29 01:39:47;;;;;;;13.23;6.23;;;3.10;99.90;;;;;;5097955;27;20198;-63
2023/01/29 01:42:15;;;;;;;10.30;6.80;;;3.10;99.90;;;;;;5064585;27;20507;-64
2023/01/29 01:44:52;;;;;;;10.97;6.47;;;3.10;99.90;;;;;;5088065;27;20572;-64
2023/01/29 01:47:24;;;;;;;9.13;6.20;;;3.40;99.90;;;;;;5079661;27;20207;-64
2023/01/29 01:49:52;;;;;;;11.83;6.37;;;3.10;99.90;;;;;;5096779;27;20196;-64
2023/01/29 01:52:20;;;;;;;13.87;6.90;;;3.10;99.90;;;;;;5077279;27;20739;-64
2023/01/29 01:54:47;;;;;;;17.17;7.47;;;3.00;99.90;;;;;;5078568;27;20218;-64
2023/01/29 01:57:23;;;;;;;11.50;6.67;;;3.10;99.90;;;;;;5059898;27;20237;-64
2023/01/29 01:59:56;;;;;;;12.47;6.80;;;3.10;99.90;;;;;;5080301;27;20272;-64
2023/01/29 02:10:42;;;;;;;11.30;7.17;;;3.10;99.90;;;;;;5069732;27;20731;-65
2023/01/29 02:13:11;;;;;;;12.20;7.00;;;3.00;99.90;;;;;;5064595;27;20207;-64
2023/01/29 02:15:40;;;;;;;9.97;6.83;;;3.00;99.90;;;;;;5083942;27;20195;-64
2023/01/29 02:18:08;;;;;;;12.50;6.90;;;3.00;99.90;;;;;;5082237;27;20341;-64
2023/01/29 02:20:35;;;;;;;13.00;7.47;;;3.00;99.90;;;;;;5097542;27;20465;-64
2023/01/29 02:23:33;;;;;;;11.67;7.10;;;3.00;99.90;;;;;;5091832;27;20203;-64
2023/01/29 02:26:45;;;;;;;12.17;7.00;;;3.00;99.90;;;;;;5052323;27;20227;-64
2023/01/29 02:29:26;;;;;;;12.47;7.50;;;3.00;99.90;;;;;;5032536;27;20966;-64
2023/01/29 02:32:14;;;;;;;9.97;7.03;;;3.00;99.90;;;;;;5087668;27;20764;-64
2023/01/29 02:37:36;;;;;;;13.00;7.37;;;3.00;99.90;;;;;;5090490;27;20625;-64
2023/01/29 02:40:12;;;;;;;10.07;6.47;;;3.00;99.90;;;;;;5074336;27;20706;-64
2023/01/29 02:42:46;;;;;;;13.90;7.67;;;3.00;99.90;;;;;;5092800;27;20206;-64
2023/01/29 02:45:18;;;;;;;13.87;8.30;;;3.00;99.90;;;;;;5047055;27;20976;-64
2023/01/29 02:47:49;;;;;;;11.20;6.80;;;3.00;99.90;;;;;;5084358;27;20210;-63
2023/01/29 02:50:20;;;;;;;11.90;7.40;;;2.90;99.90;;;;;;5084824;27;20363;-64
2023/01/29 02:52:55;;;;;;;10.87;7.13;;;3.00;99.90;;;;;;5096271;27;20195;-64
2023/01/29 02:55:27;;;;;;;12.73;8.07;;;3.00;99.90;;;;;;5075275;27;20610;-64
2023/01/29 02:57:57;;;;;;;12.17;7.17;;;3.00;99.90;;;;;;5092688;27;20239;-64
2023/01/29 03:00:29;;;;;;;11.73;7.23;;;3.00;99.90;;;;;;5045462;27;20221;-64
2023/01/29 03:03:02;;;;;;;11.40;7.87;;;3.00;99.90;;;;;;5083197;27;20202;-63
2023/01/29 03:05:32;;;;;;;15.20;7.73;;;3.00;99.90;;;;;;5077647;27;20419;-64
2023/01/29 03:08:02;;;;;;;12.50;7.93;;;3.00;99.90;;;;;;5097000;27;20794;-64
2023/01/29 03:10:36;;;;;;;13.10;7.63;;;3.00;99.90;;;;;;5077726;27;20739;-64
2023/01/29 03:13:07;;;;;;;12.90;7.40;;;3.00;99.90;;;;;;5095908;27;20775;-63
2023/01/29 03:15:45;;;;;;;11.23;7.63;;;3.00;99.90;;;;;;5046706;27;20215;-64
2023/01/29 03:18:15;;;;;;;12.80;7.03;;;3.00;99.90;;;;;;5082359;27;20214;-64
2023/01/29 03:20:47;;;;;;;13.17;7.77;;;3.00;99.90;;;;;;5090278;27;20194;-64
2023/01/29 03:23:22;;;;;;;12.63;7.50;;;3.00;99.90;;;;;;5083460;27;20200;-64
2023/01/29 03:34:22;;;;;;;13.23;8.03;;;3.00;99.90;;;;;;5088306;27;20261;-64
2023/01/29 03:36:54;;;;;;;15.47;8.67;;;3.00;99.90;;;;;;5080425;27;20230;-64
2023/01/29 03:39:22;;;;;;;15.23;8.30;;;3.00;99.90;;;;;;5094828;27;20593;-64
2023/01/29 03:41:56;;;;;;;14.40;8.47;;;3.00;99.90;;;;;;5077914;27;20202;-64
2023/01/29 03:44:33;;;;;;;15.40;7.77;;;3.00;99.90;;;;;;5091286;27;20191;-64
2023/01/29 03:47:12;;;;;;;12.60;7.43;;;3.00;99.90;;;;;;5054844;27;20271;-64
2023/01/29 03:49:50;;;;;;;21.53;8.23;;;3.10;99.90;;;;;;5075203;27;20870;-64
2023/01/29 03:52:23;;;;;;;19.17;8.63;;;3.00;99.90;;;;;;5074692;27;20324;-64
2023/01/29 03:54:58;;;;;;;14.97;8.23;;;3.00;99.90;;;;;;5093494;27;20650;-64
2023/01/29 03:57:31;;;;;;;12.40;7.87;;;3.10;99.90;;;;;;5081993;27;20800;-64
2023/01/29 04:00:07;;;;;;;14.93;8.70;;;3.00;99.90;;;;;;5090526;27;20699;-64
2023/01/29 04:02:42;;;;;;;13.93;8.60;;;3.00;99.90;;;;;;5047947;27;20498;-64
2023/01/29 04:05:14;;;;;;;14.70;9.53;;;3.00;99.90;;;;;;5081805;27;20542;-64
2023/01/29 04:07:44;;;;;;;15.40;8.80;;;3.00;99.90;;;;;;5083113;27;20206;-64
2023/01/29 04:10:15;;;;;;;17.27;8.57;;;3.00;99.90;;;;;;5076645;27;20549;-64
2023/01/29 04:12:49;;;;;;;19.93;8.47;;;3.00;99.90;;;;;;5072691;27;20203;-64
2023/01/29 04:15:19;;;;;;;13.23;8.83;;;3.00;99.90;;;;;;5068903;27;20269;-64
2023/01/29 04:17:51;;;;;;;12.70;8.70;;;3.00;99.90;;;;;;5055568;27;20225;-64
2023/01/29 04:20:18;;;;;;;13.53;8.60;;;2.90;99.90;;;;;;5084930;27;20206;-64
2023/01/29 04:22:47;;;;;;;14.57;8.63;;;2.90;99.90;;;;;;5078718;27;20202;-64
2023/01/29 04:25:16;;;;;;;15.77;9.10;;;2.90;99.90;;;;;;5071828;27;20223;-64
2023/01/29 04:27:52;;;;;;;13.80;9.13;;;2.90;99.90;;;;;;5092225;27;20200;-64
2023/01/29 04:30:26;;;;;;;16.60;9.20;;;2.90;99.90;;;;;;5080034;27;20744;-64
2023/01/29 04:33:03;;;;;;;14.67;9.00;;;3.00;99.90;;;;;;5070342;27;20265;-64
2023/01/29 04:35:35;;;;;;;15.67;8.77;;;3.00;99.90;;;;;;5097121;27;20195;-65
2023/01/29 04:38:11;;;;;;;21.07;8.93;;;3.00;99.90;;;;;;5057343;27;20235;-65
2023/01/29 04:40:48;;;;;;;15.73;9.50;;;3.00;99.90;;;;;;5071259;27;20226;-64
2023/01/29 04:43:21;;;;;;;15.10;9.37;;;3.00;99.90;;;;;;5084224;27;20223;-65
2023/01/29 04:46:03;;;;;;;14.23;9.57;;;3.00;99.90;;;;;;5082877;27;20225;-63
2023/01/29 04:48:45;;;;;;;17.83;9.30;;;3.10;99.90;;;;;;5072399;27;20682;-65
2023/01/29 04:51:19;;;;;;;18.47;9.67;;;3.10;99.90;;;;;;5093267;27;20195;-65
2023/01/29 04:53:51;;;;;;;14.63;10.10;;;3.10;99.90;;;;;;5088812;27;21147;-65
2023/01/29 04:56:25;;;;;;;17.23;10.17;;;3.10;99.90;;;;;;5089398;27;20817;-64
2023/01/29 04:58:55;;;;;;;15.60;9.57;;;3.10;99.90;;;;;;5098840;27;20227;-64
2023/01/29 05:01:28;;;;;;;16.30;9.27;;;3.10;99.90;;;;;;5079125;27;20199;-64
2023/01/29 05:04:00;;;;;;;17.63;10.33;;;3.10;99.90;;;;;;5076796;27;20761;-64
2023/01/29 05:06:27;;;;;;;13.90;9.63;;;3.10;99.90;;;;;;5086971;27;20203;-64
2023/01/29 05:08:55;;;;;;;15.90;10.00;;;3.20;99.90;;;;;;5079215;27;20213;-64
2023/01/29 05:11:24;;;;;;;14.37;10.00;;;3.10;99.90;;;;;;5092379;27;20199;-64
2023/01/29 05:13:51;;;;;;;15.73;9.67;;;3.10;99.90;;;;;;5099137;27;20207;-65
2023/01/29 05:16:23;;;;;;;17.27;9.70;;;3.20;99.90;;;;;;5084840;27;20219;-65
2023/01/29 05:18:50;;;;;;;18.93;10.23;;;3.20;99.90;;;;;;5070074;27;20235;-67
2023/01/29 05:21:19;;;;;;;23.30;10.87;;;3.20;99.90;;;;;;5098293;27;20687;-64
2023/01/29 05:23:57;;;;;;;17.07;10.13;;;3.20;99.90;;;;;;5089175;27;20200;-64
2023/01/29 05:29:11;;;;;;;18.93;11.00;;;3.20;99.90;;;;;;5101826;27;20235;-64
2023/01/29 05:31:37;;;;;;;17.57;12.00;;;3.20;99.90;;;;;;5078343;27;21083;-64
2023/01/29 05:34:04;;;;;;;17.97;9.40;;;3.20;99.90;;;;;;5093386;27;20218;-64
2023/01/29 05:36:32;;;;;;;15.30;10.63;;;3.20;99.90;;;;;;5065851;27;20215;-64
2023/01/29 05:38:59;;;;;;;21.23;10.87;;;3.30;99.90;;;;;;5086686;27;20230;-65
2023/01/29 05:41:26;;;;;;;20.07;11.43;;;3.30;99.90;;;;;;5101673;27;20206;-64
2023/01/29 05:43:52;;;;;;;15.90;11.37;;;3.20;99.90;;;;;;5086087;27;20212;-64
2023/01/29 05:46:19;;;;;;;17.80;11.37;;;3.30;99.90;;;;;;5074632;27;20214;-65
2023/01/29 05:48:46;;;;;;;18.83;11.93;;;3.30;99.90;;;;;;5098944;27;20202;-64
2023/01/29 05:51:13;;;;;;;20.23;11.50;;;3.30;99.90;;;;;;5069316;27;20213;-64
2023/01/29 05:53:41;;;;;;;25.03;12.43;;;3.30;99.90;;;;;;5084357;27;20201;-64
2023/01/29 05:56:08;;;;;;;19.50;12.30;;;3.30;99.90;;;;;;5085960;27;20210;-64
2023/01/29 05:58:35;;;;;;;20.57;11.93;;;3.30;99.90;;;;;;5084039;27;20707;-64
2023/01/29 06:01:09;;;;;;;17.13;11.40;;;3.30;99.90;;;;;;5090101;27;21121;-64
2023/01/29 06:03:36;;;;;;;19.87;12.53;;;3.30;99.90;;;;;;5082800;27;20207;-64
2023/01/29 06:06:03;;;;;;;17.43;10.60;;;3.10;99.90;;;;;;5069749;27;20694;-64
2023/01/29 06:08:30;;;;;;;21.03;11.77;;;3.30;99.90;;;;;;5094042;27;20199;-64
2023/01/29 06:10:58;;;;;;;19.03;11.80;;;3.30;99.90;;;;;;5076723;27;20597;-64
2023/01/29 06:13:25;;;;;;;18.57;11.53;;;3.30;99.90;;;;;;5080435;27;20672;-64
2023/01/29 06:15:52;;;;;;;18.77;11.93;;;3.30;99.90;;;;;;5090065;27;20370;-65
2023/01/29 06:18:19;;;;;;;18.70;11.77;;;3.30;99.90;;;;;;5068501;27;20222;-64
2023/01/29 06:20:46;;;;;;;17.27;11.67;;;3.30;99.90;;;;;;5071717;27;20202;-64
2023/01/29 06:23:12;;;;;;;23.30;12.73;;;3.30;99.90;;;;;;5088939;27;20222;-64
2023/01/29 06:25:39;;;;;;;18.43;11.63;;;3.40;99.90;;;;;;5083121;27;20227;-64
2023/01/29 06:28:07;;;;;;;18.73;11.83;;;3.30;99.90;;;;;;5092873;27;20210;-64
2023/01/29 06:30:34;;;;;;;20.87;12.87;;;3.40;99.90;;;;;;5101661;27;20198;-66
2023/01/29 06:33:01;;;;;;;18.27;12.03;;;3.30;99.90;;;;;;5087478;27;20199;-64
2023/01/29 06:35:28;;;;;;;23.63;12.97;;;3.30;99.90;;;;;;5099737;27;20191;-64
2023/01/29 06:37:56;;;;;;;20.27;12.43;;;3.40;99.90;;;;;;5063087;27;20258;-65
2023/01/29 06:40:23;;;;;;;17.97;11.77;;;3.30;99.90;;;;;;5087091;27;20753;-65
2023/01/29 06:42:50;;;;;;;20.90;13.13;;;3.40;99.90;;;;;;5085995;27;20198;-64
2023/01/29 06:45:18;;;;;;;21.10;12.63;;;3.30;99.90;;;;;;5096211;27;20221;-64
2023/01/29 06:47:45;;;;;;;20.93;11.90;;;3.30;99.90;;;;;;5096508;27;20199;-65
2023/01/29 06:50:12;;;;;;;20.00;12.47;;;3.40;99.90;;;;;;5085816;27;20210;-64
2023/01/29 06:52:39;;;;;;;22.40;12.77;;;3.40;99.90;;;;;;5060756;27;20222;-64
2023/01/29 06:55:06;;;;;;;21.13;13.23;;;3.40;99.90;;;;;;5078616;27;20210;-64
2023/01/29 06:57:33;;;;;;;23.10;13.50;;;3.40;99.90;;;;;;5084458;27;20647;-64
2023/01/29 07:00:00;;;;;;;19.37;11.07;;;3.40;99.90;;;;;;5102743;27;20203;-65
2023/01/29 07:02:29;;;;;;;17.80;12.87;;;3.40;99.90;;;;;;5097958;27;20195;-65
2023/01/29 07:04:55;;;;;;;25.03;12.63;;;3.40;99.90;;;;;;5081297;27;20203;-65
2023/01/29 07:07:22;;;;;;;23.53;13.83;;;3.50;99.90;;;;;;5071742;27;20206;-64
2023/01/29 07:09:49;;;;;;;23.57;12.70;;;3.40;99.90;;;;;;5096334;27;20205;-64
2023/01/29 07:12:16;;;;;;;19.13;12.47;;;3.40;99.90;;;;;;5070128;27;20228;-65
2023/01/29 07:14:42;;;;;;;21.27;12.07;;;3.40;99.90;;;;;;5085691;27;20214;-65
2023/01/29 07:17:09;;;;;;;21.00;12.27;;;3.40;99.90;;;;;;5093171;27;20210;-64
2023/01/29 07:19:37;;;;;;;23.30;13.03;;;3.40;99.90;;;;;;5081384;27;20226;-64
2023/01/29 07:22:04;;;;;;;21.37;12.47;;;3.40;99.90;;;;;;5075676;27;20669;-65
2023/01/29 07:24:31;;;;;;;21.77;12.80;;;3.40;99.90;;;;;;5097937;27;20253;-65
2023/01/29 07:26:58;;;;;;;22.43;12.07;;;3.40;99.90;;;;;;5069742;27;20237;-64
2023/01/29 07:29:25;;;;;;;20.53;12.53;;;3.50;99.90;;;;;;5095567;27;20218;-65
2023/01/29 07:31:51;;;;;;;23.67;12.97;;;3.40;99.90;;;;;;5100397;27;20222;-64
2023/01/29 07:34:18;;;;;;;21.50;13.00;;;3.50;99.90;;;;;;5095380;27;20311;-64
2023/01/29 07:36:47;;;;;;;19.33;12.57;;;3.50;99.90;;;;;;5076085;27;20214;-64
2023/01/29 07:39:14;;;;;;;22.63;12.57;;;3.50;99.90;;;;;;5057078;27;20443;-64
2023/01/29 07:41:41;;;;;;;19.53;11.57;;;3.50;99.90;;;;;;5092296;27;20203;-64
2023/01/29 07:44:07;;;;;;;20.27;12.37;;;3.50;99.90;;;;;;5088926;27;20294;-64
2023/01/29 07:46:34;;;;;;;22.73;12.40;;;3.60;99.90;;;;;;5093346;27;20773;-65
2023/01/29 07:49:01;;;;;;;20.30;12.43;;;3.50;99.90;;;;;;5090493;27;20678;-65
2023/01/29 07:51:28;;;;;;;24.00;12.93;;;3.50;99.90;;;;;;5085264;27;20684;-65
2023/01/29 07:53:56;;;;;;;23.63;12.97;;;3.50;99.90;;;;;;5059503;27;20574;-65
2023/01/29 07:56:23;;;;;;;23.00;12.93;;;3.50;99.90;;;;;;5093731;27;20199;-65
2023/01/29 07:58:50;;;;;;;19.10;12.43;;;3.60;99.90;;;;;;5084097;27;20226;-65
2023/01/29 08:01:17;;;;;;;21.97;13.20;;;3.60;99.90;;;;;;5052559;27;20655;-65
2023/01/29 08:03:44;;;;;;;26.93;13.17;;;3.50;99.90;;;;;;5077575;27;20226;-65
2023/01/29 08:06:11;;;;;;;19.67;12.73;;;3.50;99.90;;;;;;5058052;27;20225;-65
2023/01/29 08:08:38;;;;;;;22.50;13.30;;;3.60;99.90;;;;;;5013210;27;20616;-66
2023/01/29 08:11:06;;;;;;;21.97;13.00;;;3.60;99.90;;;;;;5090166;27;20681;-65
2023/01/29 08:13:33;;;;;;;22.87;14.20;;;3.60;99.90;;;;;;5059779;27;20740;-65
2023/01/29 08:16:01;;;;;;;24.83;13.87;;;3.60;99.90;;;;;;5075383;27;22493;-65
2023/01/29 08:18:30;;;;;;;20.10;12.90;;;3.60;99.90;;;;;;5098242;27;20233;-65
2023/01/29 08:20:59;;;;;;;20.73;13.87;;;3.60;99.90;;;;;;5061970;27;20217;-65
2023/01/29 08:23:26;;;;;;;24.47;14.30;;;3.60;99.90;;;;;;5073789;27;20251;-65
2023/01/29 08:25:53;;;;;;;23.00;14.33;;;3.60;99.90;;;;;;5054883;27;20237;-66
2023/01/29 08:28:22;;;;;;;25.60;13.80;;;3.60;99.90;;;;;;5060690;27;20261;-65
2023/01/29 08:30:49;;;;;;;26.23;14.20;;;3.60;99.90;;;;;;5093609;27;20907;-65
2023/01/29 08:33:16;;;;;;;24.13;15.07;;;3.60;99.90;;;;;;5089585;27;22061;-65
2023/01/29 08:35:42;;;;;;;24.33;15.57;;;3.60;99.90;;;;;;5082656;27;20229;-65
2023/01/29 08:38:10;;;;;;;26.13;16.03;;;3.70;99.90;;;;;;5053437;27;20264;-65
2023/01/29 08:40:37;;;;;;;23.93;15.50;;;3.60;99.90;;;;;;5060090;27;20300;-65
2023/01/29 08:43:05;;;;;;;24.23;14.73;;;3.70;99.90;;;;;;5089837;27;20235;-65
2023/01/29 08:45:36;;;;;;;29.57;15.67;;;3.70;99.90;;;;;;5068137;27;20219;-65
2023/01/29 08:48:03;;;;;;;20.93;14.43;;;3.70;99.90;;;;;;5078844;27;20703;-65
2023/01/29 08:50:31;;;;;;;25.17;15.27;;;3.70;99.90;;;;;;5102883;27;20205;-65
2023/01/29 08:52:59;;;;;;;22.37;13.87;;;3.70;99.90;;;;;;5070080;27;20276;-65
2023/01/29 08:55:26;;;;;;;21.43;14.80;;;3.70;99.90;;;;;;5045026;27;21014;-65
2023/01/29 08:57:53;;;;;;;24.33;15.43;;;3.70;99.90;;;;;;5083896;27;20223;-65
2023/01/29 09:00:20;;;;;;;25.13;14.60;;;3.70;99.90;;;;;;5065137;27;20226;-64
2023/01/29 09:02:49;;;;;;;22.37;14.93;;;3.70;99.90;;;;;;5072304;27;20672;-65
2023/01/29 09:05:16;;;;;;;24.23;14.67;;;3.70;99.90;;;;;;5061914;27;20214;-65
2023/01/29 09:07:43;;;;;;;23.97;14.40;;;3.80;99.90;;;;;;5074310;27;20223;-64
2023/01/29 09:10:11;;;;;;;23.47;15.43;;;3.70;99.90;;;;;;5065168;27;20223;-65
2023/01/29 09:12:38;;;;;;;23.63;15.23;;;3.90;99.90;;;;;;5097453;27;20222;-66
2023/01/29 09:15:05;;;;;;;27.33;15.33;;;3.80;99.90;;;;;;5074217;27;20239;-64
2023/01/29 09:17:32;;;;;;;24.07;14.47;;;3.80;99.90;;;;;;5091709;27;20874;-65
2023/01/29 09:20:00;;;;;;;24.53;14.20;;;3.80;99.90;;;;;;5065845;27;20960;-65
2023/01/29 09:22:28;;;;;;;22.37;14.10;;;3.80;99.90;;;;;;5051505;27;20216;-65
2023/01/29 09:24:55;;;;;;;25.20;14.43;;;3.90;99.90;;;;;;5058092;27;20220;-65
2023/01/29 09:27:21;;;;;;;26.10;15.13;;;3.90;99.90;;;;;;5095354;27;20249;-65
2023/01/29 09:29:48;;;;;;;23.43;14.23;;;3.90;99.90;;;;;;5085663;27;21510;-65
2023/01/29 09:32:15;;;;;;;23.33;14.50;;;3.90;99.90;;;;;;5078873;27;22925;-65
2023/01/29 09:34:42;;;;;;;20.57;13.50;;;4.00;99.90;;;;;;5088318;27;20214;-65
2023/01/29 09:37:10;;;;;;;24.70;15.70;;;4.00;99.90;;;;;;5070760;27;20916;-64
2023/01/29 09:39:37;;;;;;;24.33;12.63;;;4.00;99.90;;;;;;5068868;27;20231;-66
2023/01/29 09:42:11;;;;;;;18.67;13.63;;;4.00;99.90;;;;;;5062075;27;20880;-64
2023/01/29 09:44:54;;;;;;;25.53;13.60;;;4.00;99.90;;;;;;5070694;27;20230;-64
2023/01/29 09:47:24;;;;;;;20.17;12.43;;;4.00;99.90;;;;;;5074913;27;20215;-64
2023/01/29 09:49:56;;;;;;;21.67;12.93;;;4.00;99.90;;;;;;5092715;27;20203;-65
2023/01/29 09:52:27;;;;;;;19.83;13.03;;;4.00;99.90;;;;;;5090806;27;20200;-64
2023/01/29 09:55:03;;;;;;;21.93;12.20;;;4.10;99.90;;;;;;5041820;27;20203;-66
2023/01/29 09:57:39;;;;;;;22.17;14.47;;;4.10;99.90;;;;;;5088987;27;20206;-65
2023/01/29 10:00:12;;;;;;;19.80;12.57;;;4.10;99.90;;;;;;5071545;27;20227;-65
2023/01/29 10:02:55;;;;;;;21.57;14.00;;;4.10;99.90;;;;;;5057851;27;20226;-65
2023/01/29 10:05:37;;;;;;;24.07;14.03;;;4.10;99.90;;;;;;5078667;27;20207;-64
2023/01/29 10:08:33;;;;;;;22.90;13.90;;;4.10;99.90;;;;;;5056593;27;20230;-65
2023/01/29 10:11:05;;;;;;;21.03;13.93;;;4.20;99.90;;;;;;5022437;27;20661;-65
2023/01/29 10:13:44;;;;;;;23.17;12.93;;;4.20;99.90;;;;;;5085536;27;20223;-65
2023/01/29 10:16:33;;;;;;;21.27;13.83;;;4.30;99.90;;;;;;5052619;27;20214;-65
2023/01/29 10:19:34;;;;;;;21.00;13.90;;;4.30;99.90;;;;;;5070768;27;20239;-65
2023/01/29 10:22:39;;;;;;;23.37;13.53;;;4.30;99.90;;;;;;5089834;27;20246;-65
2023/01/29 10:25:11;;;;;;;20.77;13.07;;;4.40;99.90;;;;;;5039349;27;20227;-64
2023/01/29 10:27:41;;;;;;;22.57;13.03;;;4.30;99.90;;;;;;5036642;27;20700;-65
2023/01/29 10:30:20;;;;;;;21.23;14.00;;;4.50;99.90;;;;;;5075277;27;20218;-65
2023/01/29 10:32:49;;;;;;;29.13;14.47;;;4.30;99.90;;;;;;5049794;27;20227;-65
2023/01/29 10:37:48;;;;;;;16.53;12.43;;;4.40;99.90;;;;;;5048946;23;20258;-65
2023/01/29 10:40:28;;;;;;;19.00;12.77;;;4.50;99.90;;;;;;5060413;28;20233;-64
2023/01/29 10:43:03;;;;;;;20.53;12.93;;;4.50;99.90;;;;;;5076248;28;20208;-64
2023/01/29 10:45:41;;;;;;;22.60;13.37;;;4.50;99.90;;;;;;5055970;28;20226;-65
2023/01/29 10:48:35;;;;;;;22.20;13.37;;;4.60;99.90;;;;;;5066222;28;20222;-68
2023/01/29 10:51:13;;;;;;;18.83;12.10;;;4.60;99.90;;;;;;5042994;27;20203;-66
2023/01/29 10:53:57;;;;;;;20.87;12.73;;;4.60;99.90;;;;;;5075504;27;20226;-64
2023/01/29 10:56:41;;;;;;;19.73;12.90;;;4.70;99.90;;;;;;5034681;27;21293;-65
2023/01/29 10:59:22;;;;;;;22.30;11.83;;;4.70;99.90;;;;;;5045433;27;20238;-65
2023/01/29 11:01:49;;;;;;;19.57;12.33;;;4.70;99.90;;;;;;5065067;27;21803;-65
2023/01/29 11:04:16;;;;;;;19.90;12.00;;;4.70;99.90;;;;;;5040772;28;20219;-64
2023/01/29 11:06:44;;;;;;;22.57;13.57;;;4.70;99.90;;;;;;5055507;27;20226;-65
2023/01/29 11:09:27;;;;;;;20.73;12.47;;;4.70;99.90;;;;;;5072680;28;20219;-65
2023/01/29 11:12:00;;;;;;;20.50;12.93;;;4.60;99.90;;;;;;5075923;27;20224;-63
2023/01/29 11:14:31;;;;;;;17.00;12.10;;;4.80;99.90;;;;;;5042853;28;21547;-65
2023/01/29 11:16:59;;;;;;;19.10;13.30;;;4.60;99.90;;;;;;5072692;28;20199;-65
2023/01/29 11:19:37;;;;;;;18.40;12.27;;;4.60;99.90;;;;;;5069571;27;20306;-64
2023/01/29 11:22:08;;;;;;;16.10;11.50;;;4.60;99.90;;;;;;5064278;28;20212;-65
2023/01/29 11:24:35;;;;;;;20.37;12.20;;;4.60;99.90;;;;;;5075674;28;20992;-66
2023/01/29 11:27:15;;;;;;;19.50;11.90;;;4.70;99.90;;;;;;5075420;28;20232;-65
2023/01/29 11:29:43;;;;;;;19.43;12.43;;;4.70;99.90;;;;;;5043071;28;20203;-65
2023/01/29 11:32:13;;;;;;;20.57;12.97;;;4.70;99.90;;;;;;5063375;28;20819;-66
2023/01/29 11:34:58;;;;;;;20.97;11.97;;;4.70;99.90;;;;;;5070967;27;20712;-63
2023/01/29 11:37:32;;;;;;;21.40;12.73;;;4.70;99.90;;;;;;5058678;27;20227;-63
2023/01/29 11:39:59;;;;;;;22.07;12.90;;;4.70;99.90;;;;;;5076576;28;20234;-63
2023/01/29 11:42:32;;;;;;;22.20;13.53;;;4.70;99.90;;;;;;5053765;28;20199;-64
2023/01/29 11:45:00;;;;;;;22.10;12.43;;;4.70;99.90;;;;;;5045046;28;20223;-64
2023/01/29 11:47:29;;;;;;;19.57;12.63;;;4.80;99.90;;;;;;5044671;28;20222;-63
2023/01/29 11:49:57;;;;;;;19.43;12.73;;;4.90;99.90;;;;;;5055628;28;20329;-64
2023/01/29 11:52:27;;;;;;;19.47;12.73;;;5.30;99.90;;;;;;5054956;28;20247;-63
2023/01/29 11:54:59;;;;;;;23.37;14.03;;;5.40;99.90;;;;;;5074316;27;21319;-63
2023/01/29 11:57:33;;;;;;;17.70;12.37;;;5.30;99.90;;;;;;5071436;28;21133;-64
2023/01/29 12:00:05;;;;;;;15.20;12.00;;;5.20;99.90;;;;;;5030294;28;20253;-63
2023/01/29 12:02:36;;;;;;;18.33;12.67;;;5.00;99.90;;;;;;5057861;28;20219;-64
2023/01/29 12:05:07;;;;;;;21.17;12.87;;;5.00;99.90;;;;;;5054030;28;20226;-63
2023/01/29 12:07:34;;;;;;;18.07;12.73;;;4.90;99.90;;;;;;5059645;28;20231;-64
2023/01/29 12:10:02;;;;;;;21.27;12.90;;;4.90;99.90;;;;;;5073372;28;20300;-64
2023/01/29 12:12:38;;;;;;;22.40;12.73;;;4.90;99.90;;;;;;5067188;28;20773;-64
2023/01/29 12:15:15;;;;;;;20.90;12.33;;;4.80;99.90;;;;;;5032159;28;20256;-64
2023/01/29 12:17:46;;;;;;;20.80;12.87;;;4.80;99.90;;;;;;5044076;28;22840;-64
2023/01/29 12:20:17;;;;;;;23.90;13.80;;;4.80;99.90;;;;;;5052160;28;20739;-64
2023/01/29 12:22:51;;;;;;;21.83;13.27;;;4.80;99.90;;;;;;5060945;28;20963;-64
2023/01/29 12:25:23;;;;;;;21.93;13.70;;;4.80;99.90;;;;;;5073592;28;20203;-64
2023/01/29 12:27:57;;;;;;;24.23;14.47;;;4.80;99.90;;;;;;5072882;28;20199;-63
2023/01/29 12:30:30;;;;;;;23.00;14.73;;;4.80;99.90;;;;;;5057239;28;20219;-65
2023/01/29 12:33:04;;;;;;;24.90;16.40;;;4.80;99.90;;;;;;5060005;28;20255;-64
2023/01/29 12:35:36;;;;;;;20.70;13.57;;;4.80;99.90;;;;;;5056385;28;20203;-64
2023/01/29 12:38:10;;;;;;;21.27;13.60;;;4.70;99.90;;;;;;5075841;28;20207;-64
2023/01/29 12:40:42;;;;;;;20.87;13.77;;;4.80;99.90;;;;;;5063025;28;20230;-64
2023/01/29 12:43:15;;;;;;;19.37;13.60;;;4.50;99.90;;;;;;5075080;28;20216;-64
2023/01/29 12:45:44;;;;;;;23.80;14.30;;;4.70;99.90;;;;;;5071032;28;21108;-64
2023/01/29 12:48:15;;;;;;;23.10;14.73;;;4.70;99.90;;;;;;5044958;28;20238;-64
2023/01/29 12:50:42;;;;;;;23.60;14.73;;;4.70;99.90;;;;;;5056031;28;20201;-65
2023/01/29 12:53:23;;;;;;;20.03;13.60;;;4.70;99.90;;;;;;5043605;28;20199;-64
2023/01/29 12:55:54;;;;;;;22.07;13.70;;;4.70;99.90;;;;;;5063073;28;20210;-64
2023/01/29 12:58:27;;;;;;;24.13;14.93;;;4.80;99.90;;;;;;5062366;28;20263;-64
2023/01/29 13:00:59;;;;;;;22.70;14.13;;;4.70;99.90;;;;;;5071887;28;20242;-65
2023/01/29 13:03:29;;;;;;;21.57;13.80;;;4.70;99.90;;;;;;5052377;27;20227;-65
2023/01/29 13:05:59;;;;;;;20.80;14.40;;;4.70;99.90;;;;;;5067915;27;20211;-66
2023/01/29 13:08:30;;;;;;;24.13;14.77;;;4.70;99.90;;;;;;5071390;27;20329;-64
2023/01/29 13:11:01;;;;;;;22.83;13.90;;;4.80;99.90;;;;;;5058453;28;20199;-65
2023/01/29 13:13:35;;;;;;;19.57;13.67;;;4.70;99.90;;;;;;5057969;27;20727;-65
2023/01/29 13:16:05;;;;;;;25.57;14.50;;;4.70;99.90;;;;;;5076753;27;20200;-64
2023/01/29 13:18:43;;;;;;;20.80;13.60;;;4.70;99.90;;;;;;5042811;27;20207;-65
2023/01/29 13:21:14;;;;;;;27.40;14.77;;;4.70;99.90;;;;;;5070517;27;20223;-65
2023/01/29 13:23:44;;;;;;;23.23;14.67;;;4.70;99.90;;;;;;5064982;27;22579;-64
2023/01/29 13:26:12;;;;;;;22.63;14.77;;;4.70;99.90;;;;;;5052400;27;20223;-64
2023/01/29 13:28:40;;;;;;;24.10;15.03;;;4.70;99.90;;;;;;5061323;28;20303;-65